sensor_id;sensor_type;location;lat;lon;timestamp;P1;durP1;ratioP1;P2;durP2;ratioP2
38455;SDS011;24237;50.106;20.014;2024-03-02T00:00:18;70.47;;;34.97;;
38455;SDS011;24237;50.106;20.014;2024-03-02T00:02:46;75.00;;;35.00;;
38455;SDS011;24237;50.106;20.014;2024-03-02T00:05:14;67.38;;;32.38;;
38455;SDS011;24237;50.106;20.014;2024-03-02T00:07:42;68.18;;;32.60;;
38455;SDS011;24237;50.106;20.014;2024-03-02T00:10:09;70.47;;;32.93;;
38455;SDS011;24237;50.106;20.014;2024-03-02T00:12:37;61.72;;;31.20;;
38455;SDS011;24237;50.106;20.014;2024-03-02T00:15:06;68.43;;;34.55;;
38455;SDS011;24237;50.106;20.014;2024-03-02T00:17:57;66.47;;;32.45;;
38455;SDS011;24237;50.106;20.014;2024-03-02T00:20:24;66.82;;;33.60;;
38455;SDS011;24237;50.106;20.014;2024-03-02T00:22:52;72.45;;;33.25;;
38455;SDS011;24237;50.106;20.014;2024-03-02T00:25:26;71.97;;;34.15;;
38455;SDS011;24237;50.106;20.014;2024-03-02T00:27:51;63.00;;;30.83;;
38455;SDS011;24237;50.106;20.014;2024-03-02T00:33:02;65.07;;;31.20;;
38455;SDS011;24237;50.106;20.014;2024-03-02T00:35:32;61.67;;;30.52;;
38455;SDS011;24237;50.106;20.014;2024-03-02T00:37:58;63.95;;;30.75;;
38455;SDS011;24237;50.106;20.014;2024-03-02T00:40:28;61.65;;;30.80;;
38455;SDS011;24237;50.106;20.014;2024-03-02T00:42:55;62.50;;;32.40;;
38455;SDS011;24237;50.106;20.014;2024-03-02T00:45:21;64.97;;;31.67;;
38455;SDS011;24237;50.106;20.014;2024-03-02T00:47:47;70.15;;;34.25;;
38455;SDS011;24237;50.106;20.014;2024-03-02T00:50:12;66.38;;;30.88;;
38455;SDS011;24237;50.106;20.014;2024-03-02T00:52:40;68.45;;;32.60;;
38455;SDS011;24237;50.106;20.014;2024-03-02T00:55:06;75.00;;;33.70;;
38455;SDS011;24237;50.106;20.014;2024-03-02T00:57:33;66.60;;;33.03;;
38455;SDS011;24237;50.106;20.014;2024-03-02T00:59:59;63.70;;;30.42;;
38455;SDS011;24237;50.106;20.014;2024-03-02T01:02:25;60.58;;;31.90;;
38455;SDS011;24237;50.106;20.014;2024-03-02T01:04:51;65.47;;;31.67;;
38455;SDS011;24237;50.106;20.014;2024-03-02T01:07:17;59.42;;;31.90;;
38455;SDS011;24237;50.106;20.014;2024-03-02T01:09:43;71.15;;;34.00;;
38455;SDS011;24237;50.106;20.014;2024-03-02T01:12:10;64.18;;;32.78;;
38455;SDS011;24237;50.106;20.014;2024-03-02T01:14:35;73.43;;;34.67;;
38455;SDS011;24237;50.106;20.014;2024-03-02T01:17:01;69.15;;;35.28;;
38455;SDS011;24237;50.106;20.014;2024-03-02T01:19:29;66.97;;;34.13;;
38455;SDS011;24237;50.106;20.014;2024-03-02T01:21:55;78.18;;;33.22;;
38455;SDS011;24237;50.106;20.014;2024-03-02T01:24:21;71.00;;;33.33;;
38455;SDS011;24237;50.106;20.014;2024-03-02T01:26:47;64.78;;;33.15;;
38455;SDS011;24237;50.106;20.014;2024-03-02T01:29:13;66.18;;;33.20;;
38455;SDS011;24237;50.106;20.014;2024-03-02T01:31:38;73.40;;;36.05;;
38455;SDS011;24237;50.106;20.014;2024-03-02T01:34:07;63.00;;;33.88;;
38455;SDS011;24237;50.106;20.014;2024-03-02T01:36:33;66.53;;;32.80;;
38455;SDS011;24237;50.106;20.014;2024-03-02T01:38:58;61.10;;;31.00;;
38455;SDS011;24237;50.106;20.014;2024-03-02T01:41:24;66.50;;;32.45;;
38455;SDS011;24237;50.106;20.014;2024-03-02T01:43:50;66.78;;;32.13;;
38455;SDS011;24237;50.106;20.014;2024-03-02T01:46:16;72.18;;;33.50;;
38455;SDS011;24237;50.106;20.014;2024-03-02T01:48:41;67.88;;;34.03;;
38455;SDS011;24237;50.106;20.014;2024-03-02T01:51:07;72.93;;;34.85;;
38455;SDS011;24237;50.106;20.014;2024-03-02T01:53:33;75.88;;;33.60;;
38455;SDS011;24237;50.106;20.014;2024-03-02T01:55:59;67.22;;;32.55;;
38455;SDS011;24237;50.106;20.014;2024-03-02T01:58:26;65.97;;;33.67;;
38455;SDS011;24237;50.106;20.014;2024-03-02T02:00:52;63.22;;;32.17;;
38455;SDS011;24237;50.106;20.014;2024-03-02T02:03:18;67.97;;;33.28;;
38455;SDS011;24237;50.106;20.014;2024-03-02T02:05:43;66.95;;;34.83;;
38455;SDS011;24237;50.106;20.014;2024-03-02T02:08:09;74.88;;;32.47;;
38455;SDS011;24237;50.106;20.014;2024-03-02T02:10:35;62.33;;;31.63;;
38455;SDS011;24237;50.106;20.014;2024-03-02T02:13:01;67.93;;;31.75;;
38455;SDS011;24237;50.106;20.014;2024-03-02T02:15:31;64.70;;;31.88;;
38455;SDS011;24237;50.106;20.014;2024-03-02T02:17:57;67.38;;;30.88;;
38455;SDS011;24237;50.106;20.014;2024-03-02T02:20:24;71.90;;;31.70;;
38455;SDS011;24237;50.106;20.014;2024-03-02T02:22:59;60.33;;;29.75;;
38455;SDS011;24237;50.106;20.014;2024-03-02T02:25:26;62.75;;;30.10;;
38455;SDS011;24237;50.106;20.014;2024-03-02T02:27:53;61.38;;;30.38;;
38455;SDS011;24237;50.106;20.014;2024-03-02T02:30:21;58.88;;;30.10;;
38455;SDS011;24237;50.106;20.014;2024-03-02T02:32:48;59.20;;;30.02;;
38455;SDS011;24237;50.106;20.014;2024-03-02T02:35:14;61.72;;;29.73;;
38455;SDS011;24237;50.106;20.014;2024-03-02T02:37:40;56.80;;;30.00;;
38455;SDS011;24237;50.106;20.014;2024-03-02T02:40:06;59.80;;;31.55;;
38455;SDS011;24237;50.106;20.014;2024-03-02T02:42:32;56.05;;;28.70;;
38455;SDS011;24237;50.106;20.014;2024-03-02T02:44:58;63.60;;;30.88;;
38455;SDS011;24237;50.106;20.014;2024-03-02T02:47:23;65.70;;;30.10;;
38455;SDS011;24237;50.106;20.014;2024-03-02T02:49:50;53.30;;;28.97;;
38455;SDS011;24237;50.106;20.014;2024-03-02T02:52:16;62.00;;;29.60;;
38455;SDS011;24237;50.106;20.014;2024-03-02T02:54:43;57.35;;;28.25;;
38455;SDS011;24237;50.106;20.014;2024-03-02T02:57:09;57.85;;;30.35;;
38455;SDS011;24237;50.106;20.014;2024-03-02T02:59:35;55.50;;;29.20;;
38455;SDS011;24237;50.106;20.014;2024-03-02T03:02:01;58.83;;;29.37;;
38455;SDS011;24237;50.106;20.014;2024-03-02T03:04:27;62.13;;;31.02;;
38455;SDS011;24237;50.106;20.014;2024-03-02T03:06:53;55.17;;;29.13;;
38455;SDS011;24237;50.106;20.014;2024-03-02T03:09:18;54.88;;;29.92;;
38455;SDS011;24237;50.106;20.014;2024-03-02T03:11:44;59.67;;;29.50;;
38455;SDS011;24237;50.106;20.014;2024-03-02T03:14:10;60.88;;;28.90;;
38455;SDS011;24237;50.106;20.014;2024-03-02T03:16:35;61.10;;;29.77;;
38455;SDS011;24237;50.106;20.014;2024-03-02T03:19:01;64.88;;;30.17;;
38455;SDS011;24237;50.106;20.014;2024-03-02T03:21:26;54.95;;;28.42;;
38455;SDS011;24237;50.106;20.014;2024-03-02T03:23:52;59.97;;;28.67;;
38455;SDS011;24237;50.106;20.014;2024-03-02T03:26:18;59.05;;;30.60;;
38455;SDS011;24237;50.106;20.014;2024-03-02T03:28:43;58.22;;;28.90;;
38455;SDS011;24237;50.106;20.014;2024-03-02T03:31:09;53.50;;;27.92;;
38455;SDS011;24237;50.106;20.014;2024-03-02T03:33:35;57.40;;;29.17;;
38455;SDS011;24237;50.106;20.014;2024-03-02T03:36:01;51.30;;;26.05;;
38455;SDS011;24237;50.106;20.014;2024-03-02T03:38:28;58.08;;;30.15;;
38455;SDS011;24237;50.106;20.014;2024-03-02T03:40:54;58.53;;;28.10;;
38455;SDS011;24237;50.106;20.014;2024-03-02T03:43:20;57.58;;;29.10;;
38455;SDS011;24237;50.106;20.014;2024-03-02T03:45:46;56.63;;;28.98;;
38455;SDS011;24237;50.106;20.014;2024-03-02T03:48:11;56.63;;;29.67;;
38455;SDS011;24237;50.106;20.014;2024-03-02T03:50:37;56.47;;;30.10;;
38455;SDS011;24237;50.106;20.014;2024-03-02T03:53:03;52.08;;;28.52;;
38455;SDS011;24237;50.106;20.014;2024-03-02T03:55:29;56.08;;;29.05;;
38455;SDS011;24237;50.106;20.014;2024-03-02T03:57:54;54.85;;;29.25;;
38455;SDS011;24237;50.106;20.014;2024-03-02T04:00:20;54.55;;;27.48;;
38455;SDS011;24237;50.106;20.014;2024-03-02T04:02:45;56.72;;;26.50;;
38455;SDS011;24237;50.106;20.014;2024-03-02T04:05:11;50.63;;;27.45;;
38455;SDS011;24237;50.106;20.014;2024-03-02T04:07:37;53.00;;;26.73;;
38455;SDS011;24237;50.106;20.014;2024-03-02T04:10:09;53.63;;;26.73;;
38455;SDS011;24237;50.106;20.014;2024-03-02T04:12:38;55.83;;;28.85;;
38455;SDS011;24237;50.106;20.014;2024-03-02T04:15:04;53.50;;;28.02;;
38455;SDS011;24237;50.106;20.014;2024-03-02T04:17:32;55.28;;;28.50;;
38455;SDS011;24237;50.106;20.014;2024-03-02T04:19:58;53.95;;;28.48;;
38455;SDS011;24237;50.106;20.014;2024-03-02T04:22:25;55.17;;;26.88;;
38455;SDS011;24237;50.106;20.014;2024-03-02T04:24:51;58.67;;;26.38;;
38455;SDS011;24237;50.106;20.014;2024-03-02T04:27:16;50.75;;;26.92;;
38455;SDS011;24237;50.106;20.014;2024-03-02T04:29:42;46.88;;;25.63;;
38455;SDS011;24237;50.106;20.014;2024-03-02T04:32:08;51.53;;;25.33;;
38455;SDS011;24237;50.106;20.014;2024-03-02T04:34:33;54.03;;;26.70;;
38455;SDS011;24237;50.106;20.014;2024-03-02T04:36:59;54.70;;;27.95;;
38455;SDS011;24237;50.106;20.014;2024-03-02T04:39:24;47.70;;;26.83;;
38455;SDS011;24237;50.106;20.014;2024-03-02T04:41:50;50.90;;;26.88;;
38455;SDS011;24237;50.106;20.014;2024-03-02T04:44:16;55.78;;;27.83;;
38455;SDS011;24237;50.106;20.014;2024-03-02T04:46:41;46.30;;;24.70;;
38455;SDS011;24237;50.106;20.014;2024-03-02T04:49:07;50.80;;;25.80;;
38455;SDS011;24237;50.106;20.014;2024-03-02T04:51:33;48.53;;;27.00;;
38455;SDS011;24237;50.106;20.014;2024-03-02T04:53:59;50.88;;;25.88;;
38455;SDS011;24237;50.106;20.014;2024-03-02T04:56:24;49.63;;;26.80;;
38455;SDS011;24237;50.106;20.014;2024-03-02T04:58:56;55.47;;;27.25;;
38455;SDS011;24237;50.106;20.014;2024-03-02T05:01:21;48.95;;;26.55;;
38455;SDS011;24237;50.106;20.014;2024-03-02T05:03:47;50.75;;;26.33;;
38455;SDS011;24237;50.106;20.014;2024-03-02T05:06:13;49.13;;;26.63;;
38455;SDS011;24237;50.106;20.014;2024-03-02T05:08:38;51.00;;;25.55;;
38455;SDS011;24237;50.106;20.014;2024-03-02T05:11:04;51.40;;;26.67;;
38455;SDS011;24237;50.106;20.014;2024-03-02T05:13:48;51.38;;;25.35;;
38455;SDS011;24237;50.106;20.014;2024-03-02T05:16:14;52.55;;;26.63;;
38455;SDS011;24237;50.106;20.014;2024-03-02T05:18:40;47.88;;;25.75;;
38455;SDS011;24237;50.106;20.014;2024-03-02T05:21:05;49.45;;;26.67;;
38455;SDS011;24237;50.106;20.014;2024-03-02T05:23:31;50.50;;;25.63;;
38455;SDS011;24237;50.106;20.014;2024-03-02T05:25:56;48.58;;;25.02;;
38455;SDS011;24237;50.106;20.014;2024-03-02T05:28:22;52.05;;;26.13;;
38455;SDS011;24237;50.106;20.014;2024-03-02T05:30:48;54.20;;;26.23;;
38455;SDS011;24237;50.106;20.014;2024-03-02T05:33:14;53.07;;;26.93;;
38455;SDS011;24237;50.106;20.014;2024-03-02T05:35:40;52.20;;;26.20;;
38455;SDS011;24237;50.106;20.014;2024-03-02T05:38:05;47.78;;;26.50;;
38455;SDS011;24237;50.106;20.014;2024-03-02T05:40:31;47.97;;;25.50;;
38455;SDS011;24237;50.106;20.014;2024-03-02T05:42:56;44.85;;;24.50;;
38455;SDS011;24237;50.106;20.014;2024-03-02T05:45:22;56.95;;;27.40;;
38455;SDS011;24237;50.106;20.014;2024-03-02T05:47:48;45.90;;;25.90;;
38455;SDS011;24237;50.106;20.014;2024-03-02T05:50:13;51.03;;;24.05;;
38455;SDS011;24237;50.106;20.014;2024-03-02T05:52:39;51.40;;;26.58;;
38455;SDS011;24237;50.106;20.014;2024-03-02T05:55:05;50.97;;;24.10;;
38455;SDS011;24237;50.106;20.014;2024-03-02T05:57:30;46.85;;;25.00;;
38455;SDS011;24237;50.106;20.014;2024-03-02T06:00:19;50.83;;;25.35;;
38455;SDS011;24237;50.106;20.014;2024-03-02T06:02:44;46.08;;;25.42;;
38455;SDS011;24237;50.106;20.014;2024-03-02T06:05:10;47.13;;;25.23;;
38455;SDS011;24237;50.106;20.014;2024-03-02T06:07:36;46.83;;;25.10;;
38455;SDS011;24237;50.106;20.014;2024-03-02T06:10:02;49.83;;;25.08;;
38455;SDS011;24237;50.106;20.014;2024-03-02T06:12:28;52.63;;;27.13;;
38455;SDS011;24237;50.106;20.014;2024-03-02T06:14:55;42.63;;;25.13;;
38455;SDS011;24237;50.106;20.014;2024-03-02T06:17:21;52.42;;;25.50;;
38455;SDS011;24237;50.106;20.014;2024-03-02T06:19:46;51.20;;;24.73;;
38455;SDS011;24237;50.106;20.014;2024-03-02T06:22:12;51.05;;;26.08;;
38455;SDS011;24237;50.106;20.014;2024-03-02T06:24:38;49.63;;;26.05;;
38455;SDS011;24237;50.106;20.014;2024-03-02T06:27:04;53.17;;;25.55;;
38455;SDS011;24237;50.106;20.014;2024-03-02T06:29:32;48.58;;;27.13;;
38455;SDS011;24237;50.106;20.014;2024-03-02T06:31:58;55.55;;;27.30;;
38455;SDS011;24237;50.106;20.014;2024-03-02T06:34:24;46.90;;;25.30;;
38455;SDS011;24237;50.106;20.014;2024-03-02T06:36:50;46.53;;;25.95;;
38455;SDS011;24237;50.106;20.014;2024-03-02T06:39:16;59.03;;;27.80;;
38455;SDS011;24237;50.106;20.014;2024-03-02T06:41:42;56.63;;;27.60;;
38455;SDS011;24237;50.106;20.014;2024-03-02T06:44:08;46.70;;;24.33;;
38455;SDS011;24237;50.106;20.014;2024-03-02T06:46:33;49.53;;;25.83;;
38455;SDS011;24237;50.106;20.014;2024-03-02T06:49:02;49.55;;;25.08;;
38455;SDS011;24237;50.106;20.014;2024-03-02T06:51:31;44.72;;;24.45;;
38455;SDS011;24237;50.106;20.014;2024-03-02T06:53:59;43.95;;;24.45;;
38455;SDS011;24237;50.106;20.014;2024-03-02T06:56:24;45.05;;;23.55;;
38455;SDS011;24237;50.106;20.014;2024-03-02T06:58:50;43.35;;;24.10;;
38455;SDS011;24237;50.106;20.014;2024-03-02T07:01:15;44.85;;;25.77;;
38455;SDS011;24237;50.106;20.014;2024-03-02T07:03:42;45.57;;;24.13;;
38455;SDS011;24237;50.106;20.014;2024-03-02T07:06:09;47.33;;;24.85;;
38455;SDS011;24237;50.106;20.014;2024-03-02T07:08:34;45.97;;;23.83;;
38455;SDS011;24237;50.106;20.014;2024-03-02T07:11:00;49.30;;;23.98;;
38455;SDS011;24237;50.106;20.014;2024-03-02T07:13:26;52.67;;;25.52;;
38455;SDS011;24237;50.106;20.014;2024-03-02T07:15:52;44.70;;;23.42;;
38455;SDS011;24237;50.106;20.014;2024-03-02T07:18:36;46.65;;;24.23;;
38455;SDS011;24237;50.106;20.014;2024-03-02T07:21:10;45.65;;;25.08;;
38455;SDS011;24237;50.106;20.014;2024-03-02T07:23:36;45.67;;;25.80;;
38455;SDS011;24237;50.106;20.014;2024-03-02T07:26:02;54.72;;;25.35;;
38455;SDS011;24237;50.106;20.014;2024-03-02T07:28:28;50.92;;;25.10;;
38455;SDS011;24237;50.106;20.014;2024-03-02T07:30:58;49.88;;;26.60;;
38455;SDS011;24237;50.106;20.014;2024-03-02T07:33:24;50.47;;;26.77;;
38455;SDS011;24237;50.106;20.014;2024-03-02T07:35:49;49.05;;;24.15;;
38455;SDS011;24237;50.106;20.014;2024-03-02T07:38:15;50.00;;;26.02;;
38455;SDS011;24237;50.106;20.014;2024-03-02T07:40:43;54.78;;;29.88;;
38455;SDS011;24237;50.106;20.014;2024-03-02T07:43:09;45.90;;;25.05;;
38455;SDS011;24237;50.106;20.014;2024-03-02T07:45:35;49.78;;;27.63;;
38455;SDS011;24237;50.106;20.014;2024-03-02T07:48:01;46.50;;;26.20;;
38455;SDS011;24237;50.106;20.014;2024-03-02T07:52:55;48.40;;;24.67;;
38455;SDS011;24237;50.106;20.014;2024-03-02T07:55:21;46.25;;;25.27;;
38455;SDS011;24237;50.106;20.014;2024-03-02T07:57:48;48.15;;;25.42;;
38455;SDS011;24237;50.106;20.014;2024-03-02T08:00:15;50.05;;;24.90;;
38455;SDS011;24237;50.106;20.014;2024-03-02T08:02:40;47.47;;;23.63;;
38455;SDS011;24237;50.106;20.014;2024-03-02T08:05:07;54.85;;;30.17;;
38455;SDS011;24237;50.106;20.014;2024-03-02T08:07:33;50.03;;;27.48;;
38455;SDS011;24237;50.106;20.014;2024-03-02T08:09:59;51.75;;;26.50;;
38455;SDS011;24237;50.106;20.014;2024-03-02T08:12:25;45.35;;;25.50;;
38455;SDS011;24237;50.106;20.014;2024-03-02T08:14:51;48.17;;;26.27;;
38455;SDS011;24237;50.106;20.014;2024-03-02T08:17:16;54.22;;;27.88;;
38455;SDS011;24237;50.106;20.014;2024-03-02T08:19:42;48.30;;;27.10;;
38455;SDS011;24237;50.106;20.014;2024-03-02T08:22:09;54.78;;;27.35;;
38455;SDS011;24237;50.106;20.014;2024-03-02T08:24:35;58.20;;;28.13;;
38455;SDS011;24237;50.106;20.014;2024-03-02T08:27:01;52.35;;;29.80;;
38455;SDS011;24237;50.106;20.014;2024-03-02T08:29:27;53.67;;;28.52;;
38455;SDS011;24237;50.106;20.014;2024-03-02T08:31:53;51.70;;;29.08;;
38455;SDS011;24237;50.106;20.014;2024-03-02T08:34:19;55.87;;;30.47;;
38455;SDS011;24237;50.106;20.014;2024-03-02T08:36:45;50.10;;;27.10;;
38455;SDS011;24237;50.106;20.014;2024-03-02T08:39:12;47.50;;;26.30;;
38455;SDS011;24237;50.106;20.014;2024-03-02T08:41:49;45.60;;;24.60;;
38455;SDS011;24237;50.106;20.014;2024-03-02T08:44:15;49.60;;;26.13;;
38455;SDS011;24237;50.106;20.014;2024-03-02T08:46:41;45.92;;;25.42;;
38455;SDS011;24237;50.106;20.014;2024-03-02T08:49:07;46.70;;;26.33;;
38455;SDS011;24237;50.106;20.014;2024-03-02T08:51:33;43.30;;;24.90;;
38455;SDS011;24237;50.106;20.014;2024-03-02T08:53:59;54.42;;;26.77;;
38455;SDS011;24237;50.106;20.014;2024-03-02T08:56:25;48.72;;;26.55;;
38455;SDS011;24237;50.106;20.014;2024-03-02T08:58:51;50.55;;;26.13;;
38455;SDS011;24237;50.106;20.014;2024-03-02T09:01:17;56.33;;;28.45;;
38455;SDS011;24237;50.106;20.014;2024-03-02T09:03:43;60.47;;;33.83;;
38455;SDS011;24237;50.106;20.014;2024-03-02T09:06:12;72.28;;;44.78;;
38455;SDS011;24237;50.106;20.014;2024-03-02T09:08:39;72.95;;;46.88;;
38455;SDS011;24237;50.106;20.014;2024-03-02T09:11:05;73.53;;;49.00;;
38455;SDS011;24237;50.106;20.014;2024-03-02T09:13:32;70.50;;;43.67;;
38455;SDS011;24237;50.106;20.014;2024-03-02T09:15:58;62.13;;;33.67;;
38455;SDS011;24237;50.106;20.014;2024-03-02T09:18:24;65.20;;;35.35;;
38455;SDS011;24237;50.106;20.014;2024-03-02T09:20:50;54.22;;;32.30;;
38455;SDS011;24237;50.106;20.014;2024-03-02T09:23:16;52.67;;;28.58;;
38455;SDS011;24237;50.106;20.014;2024-03-02T09:25:41;53.22;;;28.90;;
38455;SDS011;24237;50.106;20.014;2024-03-02T09:28:07;48.53;;;27.23;;
38455;SDS011;24237;50.106;20.014;2024-03-02T09:30:32;50.17;;;28.95;;
38455;SDS011;24237;50.106;20.014;2024-03-02T09:33:00;64.57;;;33.35;;
38455;SDS011;24237;50.106;20.014;2024-03-02T09:35:25;56.47;;;32.60;;
38455;SDS011;24237;50.106;20.014;2024-03-02T09:37:51;64.55;;;36.08;;
38455;SDS011;24237;50.106;20.014;2024-03-02T09:40:16;67.40;;;37.75;;
38455;SDS011;24237;50.106;20.014;2024-03-02T09:42:42;52.22;;;30.42;;
38455;SDS011;24237;50.106;20.014;2024-03-02T09:45:10;57.63;;;30.70;;
38455;SDS011;24237;50.106;20.014;2024-03-02T09:47:36;51.58;;;28.38;;
38455;SDS011;24237;50.106;20.014;2024-03-02T09:50:02;45.67;;;27.30;;
38455;SDS011;24237;50.106;20.014;2024-03-02T09:52:28;48.20;;;26.13;;
38455;SDS011;24237;50.106;20.014;2024-03-02T09:54:56;52.90;;;26.92;;
38455;SDS011;24237;50.106;20.014;2024-03-02T09:57:21;48.70;;;25.90;;
38455;SDS011;24237;50.106;20.014;2024-03-02T09:59:47;49.85;;;26.00;;
38455;SDS011;24237;50.106;20.014;2024-03-02T10:02:13;51.08;;;26.90;;
38455;SDS011;24237;50.106;20.014;2024-03-02T10:04:38;45.47;;;26.00;;
38455;SDS011;24237;50.106;20.014;2024-03-02T10:07:17;44.15;;;24.98;;
38455;SDS011;24237;50.106;20.014;2024-03-02T10:09:47;50.83;;;26.25;;
38455;SDS011;24237;50.106;20.014;2024-03-02T10:12:14;49.58;;;26.23;;
38455;SDS011;24237;50.106;20.014;2024-03-02T10:17:08;45.88;;;24.83;;
38455;SDS011;24237;50.106;20.014;2024-03-02T10:19:36;49.10;;;25.42;;
38455;SDS011;24237;50.106;20.014;2024-03-02T10:22:06;47.45;;;25.60;;
38455;SDS011;24237;50.106;20.014;2024-03-02T10:24:37;49.35;;;26.77;;
38455;SDS011;24237;50.106;20.014;2024-03-02T10:27:07;55.13;;;27.17;;
38455;SDS011;24237;50.106;20.014;2024-03-02T10:29:36;48.33;;;26.02;;
38455;SDS011;24237;50.106;20.014;2024-03-02T10:32:04;43.42;;;25.95;;
38455;SDS011;24237;50.106;20.014;2024-03-02T10:34:31;45.80;;;24.98;;
38455;SDS011;24237;50.106;20.014;2024-03-02T10:36:57;47.10;;;26.73;;
38455;SDS011;24237;50.106;20.014;2024-03-02T10:39:24;57.72;;;26.73;;
38455;SDS011;24237;50.106;20.014;2024-03-02T10:41:50;48.55;;;24.85;;
38455;SDS011;24237;50.106;20.014;2024-03-02T10:46:43;44.85;;;25.58;;
38455;SDS011;24237;50.106;20.014;2024-03-02T10:49:12;43.85;;;26.23;;
38455;SDS011;24237;50.106;20.014;2024-03-02T10:51:37;48.90;;;26.00;;
38455;SDS011;24237;50.106;20.014;2024-03-02T10:54:03;46.63;;;25.05;;
38455;SDS011;24237;50.106;20.014;2024-03-02T10:56:47;51.10;;;26.27;;
38455;SDS011;24237;50.106;20.014;2024-03-02T10:59:17;46.47;;;26.13;;
38455;SDS011;24237;50.106;20.014;2024-03-02T11:01:57;49.63;;;26.75;;
38455;SDS011;24237;50.106;20.014;2024-03-02T11:06:51;49.17;;;27.27;;
38455;SDS011;24237;50.106;20.014;2024-03-02T11:09:21;51.58;;;28.27;;
38455;SDS011;24237;50.106;20.014;2024-03-02T11:11:54;49.45;;;26.98;;
38455;SDS011;24237;50.106;20.014;2024-03-02T11:14:27;49.10;;;28.48;;
38455;SDS011;24237;50.106;20.014;2024-03-02T11:17:01;52.90;;;29.85;;
38455;SDS011;24237;50.106;20.014;2024-03-02T11:19:29;53.45;;;27.23;;
38455;SDS011;24237;50.106;20.014;2024-03-02T11:21:55;49.67;;;27.63;;
38455;SDS011;24237;50.106;20.014;2024-03-02T11:26:52;55.55;;;28.27;;
38455;SDS011;24237;50.106;20.014;2024-03-02T11:32:04;52.30;;;30.35;;
38455;SDS011;24237;50.106;20.014;2024-03-02T11:34:31;48.58;;;28.58;;
38455;SDS011;24237;50.106;20.014;2024-03-02T11:36:59;52.67;;;29.08;;
38455;SDS011;24237;50.106;20.014;2024-03-02T11:39:27;50.85;;;27.00;;
38455;SDS011;24237;50.106;20.014;2024-03-02T11:41:53;51.75;;;27.45;;
38455;SDS011;24237;50.106;20.014;2024-03-02T11:44:26;49.30;;;27.98;;
38455;SDS011;24237;50.106;20.014;2024-03-02T11:47:02;53.03;;;27.50;;
38455;SDS011;24237;50.106;20.014;2024-03-02T11:49:36;57.85;;;30.15;;
38455;SDS011;24237;50.106;20.014;2024-03-02T11:52:06;55.50;;;26.73;;
38455;SDS011;24237;50.106;20.014;2024-03-02T11:54:33;49.85;;;26.55;;
38455;SDS011;24237;50.106;20.014;2024-03-02T11:57:04;47.67;;;25.33;;
38455;SDS011;24237;50.106;20.014;2024-03-02T11:59:31;51.45;;;27.50;;
38455;SDS011;24237;50.106;20.014;2024-03-02T12:01:57;49.58;;;25.15;;
38455;SDS011;24237;50.106;20.014;2024-03-02T12:04:23;55.50;;;26.77;;
38455;SDS011;24237;50.106;20.014;2024-03-02T12:06:56;52.40;;;26.90;;
38455;SDS011;24237;50.106;20.014;2024-03-02T12:09:26;49.38;;;26.00;;
38455;SDS011;24237;50.106;20.014;2024-03-02T12:14:34;46.03;;;25.08;;
38455;SDS011;24237;50.106;20.014;2024-03-02T12:17:04;44.65;;;24.73;;
38455;SDS011;24237;50.106;20.014;2024-03-02T12:19:31;48.25;;;25.50;;
38455;SDS011;24237;50.106;20.014;2024-03-02T12:21:58;44.97;;;23.88;;
38455;SDS011;24237;50.106;20.014;2024-03-02T12:24:26;45.17;;;25.17;;
38455;SDS011;24237;50.106;20.014;2024-03-02T12:26:52;43.55;;;24.00;;
38455;SDS011;24237;50.106;20.014;2024-03-02T12:29:19;50.03;;;25.05;;
38455;SDS011;24237;50.106;20.014;2024-03-02T12:31:47;47.45;;;25.65;;
38455;SDS011;24237;50.106;20.014;2024-03-02T12:34:14;50.35;;;26.63;;
38455;SDS011;24237;50.106;20.014;2024-03-02T12:36:41;52.42;;;29.38;;
38455;SDS011;24237;50.106;20.014;2024-03-02T12:39:08;46.78;;;25.63;;
38455;SDS011;24237;50.106;20.014;2024-03-02T12:44:03;46.40;;;24.92;;
38455;SDS011;24237;50.106;20.014;2024-03-02T12:46:30;50.92;;;25.90;;
38455;SDS011;24237;50.106;20.014;2024-03-02T12:48:57;42.83;;;24.38;;
38455;SDS011;24237;50.106;20.014;2024-03-02T12:51:24;52.25;;;25.20;;
38455;SDS011;24237;50.106;20.014;2024-03-02T12:53:56;48.33;;;24.45;;
38455;SDS011;24237;50.106;20.014;2024-03-02T12:56:23;48.55;;;24.35;;
38455;SDS011;24237;50.106;20.014;2024-03-02T12:58:53;44.75;;;24.15;;
38455;SDS011;24237;50.106;20.014;2024-03-02T13:01:19;40.85;;;23.77;;
38455;SDS011;24237;50.106;20.014;2024-03-02T13:03:45;46.22;;;25.75;;
38455;SDS011;24237;50.106;20.014;2024-03-02T13:06:16;48.83;;;25.77;;
38455;SDS011;24237;50.106;20.014;2024-03-02T13:08:42;52.50;;;28.52;;
38455;SDS011;24237;50.106;20.014;2024-03-02T13:11:08;61.35;;;31.27;;
38455;SDS011;24237;50.106;20.014;2024-03-02T13:13:34;57.83;;;35.53;;
38455;SDS011;24237;50.106;20.014;2024-03-02T13:16:00;53.67;;;33.65;;
38455;SDS011;24237;50.106;20.014;2024-03-02T13:18:26;57.22;;;34.83;;
38455;SDS011;24237;50.106;20.014;2024-03-02T13:23:21;66.55;;;34.60;;
38455;SDS011;24237;50.106;20.014;2024-03-02T13:25:46;57.83;;;36.03;;
38455;SDS011;24237;50.106;20.014;2024-03-02T13:28:12;63.25;;;36.47;;
38455;SDS011;24237;50.106;20.014;2024-03-02T13:30:38;66.68;;;36.63;;
38455;SDS011;24237;50.106;20.014;2024-03-02T13:33:04;70.43;;;38.65;;
38455;SDS011;24237;50.106;20.014;2024-03-02T13:35:30;67.25;;;37.22;;
38455;SDS011;24237;50.106;20.014;2024-03-02T13:37:55;73.32;;;38.67;;
38455;SDS011;24237;50.106;20.014;2024-03-02T13:40:21;61.50;;;36.42;;
38455;SDS011;24237;50.106;20.014;2024-03-02T13:42:48;65.57;;;36.30;;
38455;SDS011;24237;50.106;20.014;2024-03-02T13:45:15;65.47;;;36.80;;
38455;SDS011;24237;50.106;20.014;2024-03-02T13:47:43;72.75;;;39.20;;
38455;SDS011;24237;50.106;20.014;2024-03-02T13:50:09;63.10;;;35.38;;
38455;SDS011;24237;50.106;20.014;2024-03-02T13:52:34;63.63;;;37.90;;
38455;SDS011;24237;50.106;20.014;2024-03-02T13:55:00;62.17;;;35.50;;
38455;SDS011;24237;50.106;20.014;2024-03-02T13:57:25;71.00;;;36.10;;
38455;SDS011;24237;50.106;20.014;2024-03-02T13:59:51;71.28;;;39.05;;
38455;SDS011;24237;50.106;20.014;2024-03-02T14:02:17;69.03;;;36.60;;
38455;SDS011;24237;50.106;20.014;2024-03-02T14:04:43;65.13;;;35.63;;
38455;SDS011;24237;50.106;20.014;2024-03-02T14:07:09;62.30;;;34.15;;
38455;SDS011;24237;50.106;20.014;2024-03-02T14:12:02;59.10;;;31.98;;
38455;SDS011;24237;50.106;20.014;2024-03-02T14:14:29;62.97;;;33.25;;
38455;SDS011;24237;50.106;20.014;2024-03-02T14:16:54;59.35;;;32.38;;
38455;SDS011;24237;50.106;20.014;2024-03-02T14:19:29;61.65;;;32.95;;
38455;SDS011;24237;50.106;20.014;2024-03-02T14:21:55;62.67;;;32.13;;
38455;SDS011;24237;50.106;20.014;2024-03-02T14:24:21;58.85;;;34.25;;
38455;SDS011;24237;50.106;20.014;2024-03-02T14:26:51;57.88;;;34.10;;
38455;SDS011;24237;50.106;20.014;2024-03-02T14:29:18;63.53;;;33.72;;
38455;SDS011;24237;50.106;20.014;2024-03-02T14:31:44;59.42;;;32.35;;
38455;SDS011;24237;50.106;20.014;2024-03-02T14:34:13;55.78;;;31.50;;